createdAt,value
2023-03-10T00:02:19.398Z,8.98
2023-03-10T00:07:21.281Z,9.35
2023-03-10T00:12:22.837Z,8.27
2023-03-10T00:17:24.628Z,9.25
2023-03-10T00:22:26.115Z,8.73
2023-03-10T00:27:27.569Z,9.85
2023-03-10T00:32:29.073Z,7.40
2023-03-10T00:37:30.468Z,9.60
2023-03-10T00:42:31.877Z,8.73
2023-03-10T00:47:33.961Z,9.15
2023-03-10T00:52:35.427Z,12.30
2023-03-10T00:57:38.387Z,6.65
2023-03-10T01:02:39.822Z,5.93
2023-03-10T01:07:41.397Z,5.88
2023-03-10T01:12:42.839Z,7.40
2023-03-10T01:17:44.312Z,7.80
2023-03-10T01:22:45.794Z,9.88
2023-03-10T01:27:47.204Z,6.85
2023-03-10T01:32:49.111Z,7.47
2023-03-10T01:37:50.716Z,7.43
2023-03-10T01:42:53.453Z,7.82
2023-03-10T01:47:57.347Z,9.82
2023-03-10T01:52:59.268Z,9.98
2023-03-10T01:58:03.323Z,9.82
2023-03-10T02:03:27.857Z,10.43
2023-03-10T02:08:37.861Z,11.40
2023-03-10T02:13:39.368Z,12.10
2023-03-10T02:18:44.834Z,14.43
2023-03-10T02:24:01.391Z,11.23
2023-03-10T02:29:07.352Z,19.55
2023-03-10T02:34:08.924Z,14.25
2023-03-10T02:39:10.420Z,11.57
2023-03-10T02:44:14.874Z,11.82
2023-03-10T02:49:19.288Z,13.45
2023-03-10T02:54:20.674Z,11.95
2023-03-10T02:59:22.152Z,9.57
2023-03-10T03:04:23.605Z,9.88
2023-03-10T03:09:24.992Z,9.98
2023-03-10T03:14:26.415Z,10.52
2023-03-10T03:19:29.827Z,10.85
2023-03-10T03:24:32.547Z,12.05
2023-03-10T03:29:34.220Z,10.90
2023-03-10T03:34:35.701Z,10.15
2023-03-10T03:39:37.173Z,11.32
2023-03-10T03:44:42.360Z,11.75
2023-03-10T03:49:43.850Z,11.40
2023-03-10T03:54:45.405Z,9.63
2023-03-10T03:59:46.809Z,13.90
2023-03-10T04:04:48.445Z,12.65
2023-03-10T04:09:49.972Z,13.68
2023-03-10T04:14:51.921Z,11.65
2023-03-10T04:20:06.216Z,12.23
2023-03-10T04:25:09.239Z,9.05
2023-03-10T04:30:13.629Z,11.95
2023-03-10T04:35:15.065Z,18.55
2023-03-10T04:40:16.906Z,9.07
2023-03-10T04:45:18.353Z,7.95
2023-03-10T04:50:19.896Z,10.20
2023-03-10T04:55:21.352Z,7.32
2023-03-10T05:00:23.099Z,7.57
2023-03-10T05:05:24.566Z,6.22
2023-03-10T05:10:26.183Z,7.90
2023-03-10T05:15:28.050Z,7.35
2023-03-10T05:20:29.453Z,7.75
2023-03-10T05:25:31.027Z,7.65
2023-03-10T05:30:32.403Z,8.35
2023-03-10T05:35:34.010Z,7.15
2023-03-10T05:40:36.609Z,6.70
2023-03-10T05:45:38.761Z,8.15
2023-03-10T05:50:40.194Z,7.70
2023-03-10T05:55:41.627Z,5.15
2023-03-10T06:00:43.030Z,5.68
2023-03-10T06:05:44.556Z,6.45
2023-03-10T06:10:46.166Z,5.72
2023-03-10T06:15:56.475Z,5.55
2023-03-10T06:20:58.229Z,9.32
2023-03-10T06:26:08.740Z,8.25
2023-03-10T06:31:18.583Z,9.20
2023-03-10T06:36:21.926Z,10.98
2023-03-10T06:41:23.779Z,8.02
2023-03-10T06:46:25.753Z,5.95
2023-03-10T06:51:27.303Z,8.52
2023-03-10T06:56:28.781Z,8.07
2023-03-10T07:01:33.334Z,7.35
2023-03-10T07:06:34.829Z,7.20
2023-03-10T07:11:36.444Z,7.55
2023-03-10T07:16:41.008Z,7.00
2023-03-10T07:21:42.483Z,7.97
2023-03-10T07:26:43.955Z,7.47
2023-03-10T07:31:47.910Z,8.55
2023-03-10T07:36:49.804Z,9.52
2023-03-10T07:41:51.231Z,9.57
2023-03-10T07:46:52.926Z,8.55
2023-03-10T07:51:54.357Z,8.07
2023-03-10T07:56:56.395Z,6.45
2023-03-10T08:01:57.800Z,4.40
2023-03-10T08:07:02.200Z,7.53
2023-03-10T08:12:04.521Z,6.65
2023-03-10T08:17:05.983Z,7.90
2023-03-10T08:22:07.521Z,6.22
2023-03-10T08:27:09.017Z,5.65
2023-03-10T08:32:10.552Z,5.65
2023-03-10T08:37:12.367Z,5.55
2023-03-10T08:42:14.012Z,6.93
2023-03-10T08:47:15.575Z,5.68
2023-03-10T08:52:17.094Z,7.55
2023-03-10T08:57:18.514Z,7.05
2023-03-10T09:02:21.893Z,7.25
2023-03-10T09:07:23.540Z,7.72
2023-03-10T09:12:34.038Z,10.50
2023-03-10T09:17:38.741Z,8.80
2023-03-10T09:22:42.725Z,7.32
2023-03-10T09:27:46.599Z,6.85
2023-03-10T09:32:48.638Z,7.88
2023-03-10T09:37:50.163Z,10.40
2023-03-10T09:42:56.485Z,6.50
2023-03-10T09:48:17.185Z,8.82
2023-03-10T09:53:35.649Z,6.40
2023-03-10T09:58:41.859Z,7.05
2023-03-10T10:03:53.057Z,7.30
2023-03-10T10:09:04.979Z,7.10
2023-03-10T10:14:30.442Z,7.40
2023-03-10T10:19:34.330Z,4.78
2023-03-10T10:24:36.980Z,5.53
2023-03-10T10:29:42.352Z,5.85
2023-03-10T10:34:47.349Z,11.13
2023-03-10T10:39:51.002Z,6.10
2023-03-10T10:44:58.407Z,9.90
2023-03-10T10:50:26.317Z,7.53
2023-03-10T10:55:37.000Z,7.38
2023-03-10T11:00:39.181Z,6.68
2023-03-10T11:05:40.812Z,6.47
2023-03-10T11:10:42.690Z,6.15
2023-03-10T11:16:06.123Z,5.32
2023-03-10T11:21:15.091Z,3.28
2023-03-10T11:26:50.055Z,5.10
2023-03-10T11:32:10.150Z,5.43
2023-03-10T11:37:29.823Z,4.53
2023-03-10T11:42:50.631Z,4.97
2023-03-10T11:48:13.657Z,5.07
2023-03-10T11:53:41.004Z,4.60
2023-03-10T12:09:08.269Z,5.13
2023-03-10T12:14:14.459Z,2.92
2023-03-10T12:19:16.026Z,4.23
2023-03-10T12:24:46.545Z,3.42
2023-03-10T12:29:49.467Z,2.70
2023-03-10T12:35:32.133Z,2.47
2023-03-10T12:40:52.309Z,3.05
2023-03-10T12:45:56.849Z,2.38
2023-03-10T12:51:05.005Z,3.28
2023-03-10T12:56:15.953Z,3.05
2023-03-10T13:01:23.694Z,4.00
2023-03-10T13:06:45.026Z,2.92
2023-03-10T13:12:07.720Z,4.22
2023-03-10T13:17:31.224Z,4.88
2023-03-10T13:22:33.450Z,4.32
2023-03-10T13:27:35.414Z,2.67
2023-03-10T13:32:36.970Z,3.38
2023-03-10T13:37:40.069Z,2.42
2023-03-10T13:42:44.461Z,3.45
2023-03-10T13:47:47.313Z,3.20
2023-03-10T13:52:55.003Z,3.08
2023-03-10T13:57:59.846Z,3.90
2023-03-10T14:03:01.846Z,2.83
2023-03-10T14:08:04.413Z,2.83
2023-03-10T14:13:05.948Z,3.13
2023-03-10T14:18:10.251Z,2.97
2023-03-10T14:23:28.497Z,3.13
2023-03-10T14:28:33.547Z,2.95
2023-03-10T14:33:35.450Z,2.42
2023-03-10T14:38:47.239Z,3.53
2023-03-10T14:43:49.105Z,4.63
2023-03-10T14:48:54.617Z,3.60
2023-03-10T14:53:56.434Z,1.52
2023-03-10T14:59:02.003Z,2.95
2023-03-10T15:04:03.578Z,1.17
2023-03-10T15:09:05.242Z,20.80
2023-03-10T15:14:17.154Z,3.20
2023-03-10T15:19:22.068Z,4.28
2023-03-10T15:24:23.550Z,7.50
2023-03-10T15:29:24.979Z,8.38
2023-03-10T15:34:26.556Z,4.97
2023-03-10T15:39:32.131Z,4.40
2023-03-10T15:44:34.515Z,3.47
2023-03-10T15:49:38.864Z,2.58
2023-03-10T15:54:40.922Z,3.17
2023-03-10T15:59:42.842Z,2.05
2023-03-10T16:04:44.769Z,1.95
2023-03-10T16:09:47.582Z,2.40
2023-03-10T16:14:48.988Z,3.70
2023-03-10T16:19:50.601Z,1.95
2023-03-10T16:24:52.060Z,5.45
2023-03-10T16:29:53.502Z,3.45
2023-03-10T16:34:54.950Z,3.40
2023-03-10T16:39:57.956Z,5.13
2023-03-10T16:44:59.432Z,4.47
2023-03-10T16:50:00.936Z,4.55
2023-03-10T16:55:05.116Z,4.97
2023-03-10T17:00:09.311Z,3.40
2023-03-10T17:05:13.794Z,4.07
2023-03-10T17:10:24.087Z,6.97
2023-03-10T17:15:25.518Z,5.03
2023-03-10T17:20:29.257Z,2.63
2023-03-10T17:25:30.635Z,2.70
2023-03-10T17:30:32.053Z,1.77
2023-03-10T17:35:38.463Z,3.25
2023-03-10T17:40:42.688Z,2.40
2023-03-10T17:45:44.119Z,1.77
2023-03-10T17:50:48.392Z,0.75
2023-03-10T17:55:49.886Z,0.80
2023-03-10T18:00:51.380Z,1.42
2023-03-10T18:05:52.942Z,1.23
2023-03-10T18:11:02.757Z,1.35
2023-03-10T18:16:06.072Z,0.70
2023-03-10T18:21:12.192Z,1.65
2023-03-10T18:26:17.615Z,1.33
2023-03-10T18:31:24.249Z,3.50
2023-03-10T18:36:26.799Z,7.95
2023-03-10T18:41:30.641Z,1.50
2023-03-10T18:46:32.180Z,3.22
2023-03-10T18:51:33.602Z,3.40
2023-03-10T18:56:35.127Z,3.30
2023-03-10T19:01:36.592Z,1.95
2023-03-10T19:06:38.818Z,1.23
2023-03-10T19:11:40.433Z,2.15
2023-03-10T19:16:43.762Z,1.23
2023-03-10T19:21:45.344Z,2.10
2023-03-10T19:26:47.627Z,1.83
2023-03-10T19:31:49.348Z,2.58
2023-03-10T19:36:50.788Z,0.73
2023-03-10T19:41:52.279Z,1.35
2023-03-10T19:46:55.079Z,1.27
2023-03-10T19:51:56.616Z,1.20
2023-03-10T19:57:00.325Z,1.30
2023-03-10T20:02:05.499Z,1.63
2023-03-10T20:07:09.154Z,3.25
2023-03-10T20:12:12.931Z,1.55
2023-03-10T20:17:19.156Z,3.83
2023-03-10T20:22:32.510Z,5.30
2023-03-10T20:27:37.696Z,5.32
2023-03-10T20:32:39.374Z,6.97
2023-03-10T20:37:43.652Z,1.77
2023-03-10T20:42:45.738Z,2.67
2023-03-10T20:47:49.149Z,3.83
2023-03-10T20:52:53.122Z,3.50
2023-03-10T20:57:56.621Z,2.28
2023-03-10T21:03:00.900Z,3.88
2023-03-10T21:08:04.172Z,3.03
2023-03-10T21:13:06.046Z,5.22
2023-03-10T21:18:07.672Z,4.60
2023-03-10T21:23:09.312Z,2.47
2023-03-10T21:28:11.787Z,2.50
2023-03-10T21:33:13.427Z,5.38
2023-03-10T21:38:14.949Z,1.48
2023-03-10T21:43:17.143Z,3.28
2023-03-10T21:48:22.427Z,5.28
2023-03-10T21:53:38.166Z,6.13
2023-03-10T21:58:39.638Z,3.20
2023-03-10T22:03:42.473Z,4.95
2023-03-10T22:08:44.061Z,3.53
2023-03-10T22:13:45.622Z,5.38
2023-03-10T22:18:50.270Z,3.65
2023-03-10T22:23:51.700Z,6.78
2023-03-10T22:28:54.480Z,3.85
2023-03-10T22:33:56.101Z,1.95
2023-03-10T22:38:57.606Z,2.10
2023-03-10T22:43:59.489Z,3.03
2023-03-10T22:49:02.395Z,5.97
2023-03-10T22:54:07.335Z,4.10
2023-03-10T22:59:09.007Z,4.57
2023-03-10T23:04:10.572Z,7.25
2023-03-10T23:09:12.099Z,6.80
2023-03-10T23:14:13.765Z,6.32
2023-03-10T23:19:15.179Z,7.10
2023-03-10T23:24:16.759Z,7.75
2023-03-10T23:29:20.636Z,10.52
2023-03-10T23:34:22.728Z,8.05
2023-03-10T23:39:24.628Z,5.88
2023-03-10T23:44:27.160Z,7.10
2023-03-10T23:49:29.186Z,2.33
2023-03-10T23:54:30.648Z,5.43
2023-03-10T23:59:32.320Z,2.47
